createdAt,value
2018-06-22T00:02:11.401Z,1.80
2018-06-22T00:04:39.907Z,1.70
2018-06-22T00:07:08.390Z,1.63
2018-06-22T00:09:36.901Z,2.10
2018-06-22T00:12:05.480Z,1.50
2018-06-22T00:14:34.011Z,1.83
2018-06-22T00:17:02.517Z,1.40
2018-06-22T00:19:31.001Z,1.73
2018-06-22T00:21:59.603Z,1.80
2018-06-22T00:24:28.121Z,1.50
2018-06-22T00:26:56.669Z,1.60
2018-06-22T00:29:25.155Z,1.43
2018-06-22T00:31:53.940Z,1.50
2018-06-22T00:34:22.406Z,2.47
2018-06-22T00:36:51.066Z,1.60
2018-06-22T00:39:19.574Z,1.60
2018-06-22T00:41:48.191Z,1.50
2018-06-22T00:44:16.760Z,1.50
2018-06-22T00:46:45.317Z,1.60
2018-06-22T00:49:14.136Z,1.97
2018-06-22T00:51:42.665Z,1.33
2018-06-22T00:54:14.942Z,1.97
2018-06-22T00:56:43.488Z,1.30
2018-06-22T00:59:12.657Z,1.40
2018-06-22T01:01:41.321Z,1.33
2018-06-22T01:04:10.904Z,1.00
2018-06-22T01:06:39.442Z,1.60
2018-06-22T01:09:10.718Z,1.73
2018-06-22T01:11:39.352Z,1.20
2018-06-22T01:14:08.391Z,1.50
2018-06-22T01:16:37.115Z,1.80
2018-06-22T01:19:05.900Z,1.57
2018-06-22T01:21:34.484Z,1.23
2018-06-22T01:24:02.994Z,1.60
2018-06-22T01:26:31.457Z,1.37
2018-06-22T01:29:05.381Z,1.40
2018-06-22T01:31:33.925Z,1.23
2018-06-22T01:34:02.221Z,1.60
2018-06-22T01:36:30.720Z,1.93
2018-06-22T01:38:59.237Z,1.40
2018-06-22T01:41:27.814Z,1.17
2018-06-22T01:43:56.385Z,1.40
2018-06-22T01:46:24.913Z,1.53
2018-06-22T01:48:53.414Z,1.10
2018-06-22T01:51:21.895Z,1.43
2018-06-22T01:53:50.394Z,1.20
2018-06-22T01:56:18.928Z,1.20
2018-06-22T01:58:47.490Z,1.10
2018-06-22T02:01:16.028Z,1.20
2018-06-22T02:03:44.495Z,1.40
2018-06-22T02:06:12.971Z,1.27
2018-06-22T02:08:41.559Z,1.47
2018-06-22T02:11:10.087Z,1.47
2018-06-22T02:13:38.527Z,2.00
2018-06-22T02:16:06.997Z,1.20
2018-06-22T02:18:35.469Z,2.00
2018-06-22T02:21:03.679Z,2.13
2018-06-22T02:23:32.167Z,1.80
2018-06-22T02:26:00.672Z,2.07
2018-06-22T02:28:29.122Z,1.70
2018-06-22T02:30:57.598Z,1.60
2018-06-22T02:33:26.127Z,1.83
2018-06-22T02:35:54.825Z,1.90
2018-06-22T02:38:23.296Z,1.47
2018-06-22T02:40:51.772Z,1.63
2018-06-22T02:43:20.260Z,1.80
2018-06-22T02:45:48.784Z,1.30
2018-06-22T02:48:17.306Z,1.57
2018-06-22T02:50:45.790Z,2.13
2018-06-22T02:53:13.974Z,1.93
2018-06-22T02:55:42.449Z,1.93
2018-06-22T02:58:10.642Z,1.83
2018-06-22T03:00:39.110Z,2.57
2018-06-22T03:03:07.289Z,2.03
2018-06-22T03:05:35.472Z,1.67
2018-06-22T03:08:03.967Z,1.63
2018-06-22T03:10:32.431Z,1.87
2018-06-22T03:13:00.610Z,2.33
2018-06-22T03:15:29.072Z,2.10
2018-06-22T03:17:57.588Z,2.60
2018-06-22T03:20:25.748Z,2.67
2018-06-22T03:22:54.262Z,1.83
2018-06-22T03:25:22.695Z,1.60
2018-06-22T03:27:51.164Z,2.07
2018-06-22T03:30:19.724Z,1.90
2018-06-22T03:32:48.266Z,2.10
2018-06-22T03:35:16.787Z,1.97
2018-06-22T03:37:44.952Z,2.40
2018-06-22T03:40:13.412Z,1.90
2018-06-22T03:42:41.885Z,1.77
2018-06-22T03:45:10.466Z,2.07
2018-06-22T03:47:39.083Z,1.83
2018-06-22T03:50:07.564Z,2.20
2018-06-22T03:52:36.009Z,1.73
2018-06-22T03:55:04.494Z,1.43
2018-06-22T03:57:32.936Z,1.20
2018-06-22T04:00:01.105Z,1.10
2018-06-22T04:02:29.617Z,1.67
2018-06-22T04:04:58.107Z,1.40
2018-06-22T04:07:26.579Z,1.40
2018-06-22T04:09:54.746Z,1.20
2018-06-22T04:12:23.182Z,2.10
2018-06-22T04:14:51.656Z,1.20
2018-06-22T04:17:20.090Z,1.80
2018-06-22T04:19:48.577Z,1.20
2018-06-22T04:22:17.085Z,1.10
2018-06-22T04:24:45.287Z,1.27
2018-06-22T04:27:13.710Z,1.37
2018-06-22T04:29:42.147Z,1.27
2018-06-22T04:32:10.621Z,1.40
2018-06-22T04:34:39.085Z,1.20
2018-06-22T04:37:07.566Z,1.00
2018-06-22T04:39:36.309Z,1.30
2018-06-22T04:42:04.806Z,1.50
2018-06-22T04:44:33.264Z,1.40
2018-06-22T04:47:02.090Z,1.33
2018-06-22T04:49:30.922Z,1.17
2018-06-22T04:52:00.052Z,1.30
2018-06-22T04:54:28.719Z,1.23
2018-06-22T04:56:59.586Z,1.20
2018-06-22T04:59:28.400Z,1.20
2018-06-22T05:01:57.238Z,1.27
2018-06-22T05:04:25.654Z,1.10
2018-06-22T05:06:54.157Z,1.10
2018-06-22T05:09:22.660Z,1.10
2018-06-22T05:11:50.813Z,1.27
2018-06-22T05:14:19.566Z,1.30
2018-06-22T05:16:48.057Z,0.90
2018-06-22T05:19:16.619Z,1.40
2018-06-22T05:21:45.107Z,1.00
2018-06-22T05:24:13.568Z,1.00
2018-06-22T05:26:42.057Z,0.83
2018-06-22T05:29:10.506Z,1.67
2018-06-22T05:31:39.262Z,0.90
2018-06-22T05:34:07.715Z,0.80
2018-06-22T05:36:36.235Z,0.90
2018-06-22T05:39:07.766Z,0.90
2018-06-22T05:41:36.307Z,1.27
2018-06-22T05:44:04.798Z,1.20
2018-06-22T05:46:33.259Z,1.00
2018-06-22T05:49:01.766Z,0.93
2018-06-22T05:51:30.283Z,0.93
2018-06-22T05:53:58.772Z,1.07
2018-06-22T05:56:27.275Z,0.83
2018-06-22T05:58:55.813Z,1.47
2018-06-22T06:01:24.253Z,0.80
2018-06-22T06:03:52.780Z,0.90
2018-06-22T06:06:21.217Z,0.93
2018-06-22T06:08:49.734Z,0.80
2018-06-22T06:11:18.264Z,0.90
2018-06-22T06:13:46.729Z,0.80
2018-06-22T06:16:14.888Z,0.87
2018-06-22T06:18:43.379Z,0.67
2018-06-22T06:21:11.861Z,0.90
2018-06-22T06:23:40.073Z,0.83
2018-06-22T06:26:08.786Z,0.77
2018-06-22T06:28:36.990Z,0.80
2018-06-22T06:31:05.480Z,0.90
2018-06-22T06:33:34.016Z,0.80
2018-06-22T06:36:02.530Z,1.03
2018-06-22T06:38:31.013Z,0.90
2018-06-22T06:40:59.511Z,1.00
2018-06-22T06:43:28.047Z,1.10
2018-06-22T06:45:56.313Z,1.07
2018-06-22T06:48:24.809Z,0.90
2018-06-22T06:50:53.038Z,1.10
2018-06-22T06:53:21.526Z,0.80
2018-06-22T06:55:50.066Z,1.43
2018-06-22T06:58:18.552Z,1.20
2018-06-22T07:00:47.016Z,1.03
2018-06-22T07:03:15.503Z,1.00
2018-06-22T07:05:44.060Z,1.10
2018-06-22T07:08:12.699Z,1.10
2018-06-22T07:10:41.180Z,1.20
2018-06-22T07:13:09.412Z,1.10
2018-06-22T07:15:40.642Z,1.00
2018-06-22T07:18:09.869Z,1.20
2018-06-22T07:20:38.746Z,1.20
2018-06-22T07:23:07.795Z,1.20
2018-06-22T07:25:36.101Z,1.10
2018-06-22T07:28:04.762Z,1.50
2018-06-22T07:30:33.238Z,1.30
2018-06-22T07:33:01.844Z,1.80
2018-06-22T07:35:30.011Z,1.57
2018-06-22T07:37:58.479Z,1.40
2018-06-22T07:40:26.913Z,1.30
2018-06-22T07:42:55.419Z,1.57
2018-06-22T07:45:23.871Z,1.50
2018-06-22T07:47:52.354Z,1.47
2018-06-22T07:50:20.854Z,1.53
2018-06-22T07:52:49.381Z,1.47
2018-06-22T07:55:17.845Z,1.57
2018-06-22T07:57:46.306Z,1.73
2018-06-22T08:00:14.833Z,1.17
2018-06-22T08:02:43.337Z,1.33
2018-06-22T08:05:11.839Z,1.40
2018-06-22T08:07:40.314Z,1.87
2018-06-22T08:10:08.754Z,1.23
2018-06-22T08:12:37.231Z,1.83
2018-06-22T08:15:05.683Z,1.87
2018-06-22T08:17:34.349Z,1.40
2018-06-22T08:20:02.815Z,2.10
2018-06-22T08:22:31.416Z,1.93
2018-06-22T08:24:59.904Z,1.60
2018-06-22T08:27:28.349Z,1.30
2018-06-22T08:29:56.803Z,1.50
2018-06-22T08:32:25.276Z,1.37
2018-06-22T08:34:53.764Z,1.77
2018-06-22T08:37:22.301Z,1.70
2018-06-22T08:39:50.917Z,1.90
2018-06-22T08:42:19.401Z,2.37
2018-06-22T08:44:47.996Z,1.60
2018-06-22T08:47:16.465Z,1.77
2018-06-22T08:49:44.941Z,2.07
2018-06-22T08:52:15.030Z,1.60
2018-06-22T08:54:43.579Z,1.70
2018-06-22T08:57:12.028Z,1.87
2018-06-22T08:59:40.509Z,1.60
2018-06-22T09:02:08.987Z,1.90
2018-06-22T09:04:37.440Z,1.90
2018-06-22T09:07:05.926Z,2.43
2018-06-22T09:09:34.126Z,2.30
2018-06-22T09:12:02.292Z,2.13
2018-06-22T09:14:30.486Z,2.50
2018-06-22T09:16:58.947Z,2.10
2018-06-22T09:19:27.442Z,2.00
2018-06-22T09:21:55.605Z,2.07
2018-06-22T09:24:24.046Z,2.20
2018-06-22T09:26:52.493Z,2.37
2018-06-22T09:29:20.719Z,1.90
2018-06-22T09:31:49.192Z,2.17
2018-06-22T09:34:18.027Z,2.53
2018-06-22T09:36:46.470Z,2.33
2018-06-22T09:39:14.949Z,2.00
2018-06-22T09:41:43.418Z,2.30
2018-06-22T09:44:23.214Z,2.03
2018-06-22T09:46:51.656Z,2.40
2018-06-22T09:49:20.155Z,2.20
2018-06-22T09:51:48.637Z,2.30
2018-06-22T09:54:17.072Z,1.90
2018-06-22T09:56:45.568Z,1.93
2018-06-22T09:59:14.020Z,2.20
2018-06-22T10:01:42.522Z,1.90
2018-06-22T10:04:11.005Z,1.90
2018-06-22T10:06:39.472Z,2.10
2018-06-22T10:09:10.389Z,2.13
2018-06-22T10:11:38.925Z,2.20
2018-06-22T10:14:07.446Z,2.90
2018-06-22T10:16:35.620Z,2.57
2018-06-22T10:19:04.193Z,2.00
2018-06-22T10:21:32.659Z,2.40
2018-06-22T10:24:01.437Z,2.37
2018-06-22T10:26:29.901Z,2.23
2018-06-22T10:28:58.494Z,1.70
2018-06-22T10:31:26.935Z,2.00
2018-06-22T10:33:55.298Z,1.70
2018-06-22T10:36:23.742Z,1.93
2018-06-22T10:38:52.338Z,2.37
2018-06-22T10:41:20.857Z,2.13
2018-06-22T10:43:49.332Z,2.20
2018-06-22T10:46:17.875Z,2.03
2018-06-22T10:48:46.313Z,2.30
2018-06-22T10:51:14.861Z,1.87
2018-06-22T10:53:43.300Z,1.80
2018-06-22T10:56:11.911Z,3.30
2018-06-22T10:58:40.398Z,1.73
2018-06-22T11:01:08.981Z,1.83
2018-06-22T11:03:37.543Z,2.00
2018-06-22T11:06:06.114Z,2.93
2018-06-22T11:08:34.601Z,1.90
2018-06-22T11:11:03.149Z,2.10
2018-06-22T11:13:31.798Z,2.70
2018-06-22T11:16:00.279Z,2.33
2018-06-22T11:18:29.182Z,2.50
2018-06-22T11:20:57.485Z,1.93
2018-06-22T11:23:25.996Z,2.30
2018-06-22T11:25:54.553Z,2.20
2018-06-22T11:28:23.083Z,2.63
2018-06-22T11:30:51.633Z,2.80
2018-06-22T11:33:20.240Z,3.13
2018-06-22T11:35:48.842Z,2.87
2018-06-22T11:38:17.235Z,2.40
2018-06-22T11:40:45.732Z,2.30
2018-06-22T11:43:14.179Z,2.50
2018-06-22T11:45:42.820Z,2.50
2018-06-22T11:48:11.276Z,2.50
2018-06-22T11:50:39.813Z,2.60
2018-06-22T11:53:07.983Z,2.80
2018-06-22T11:55:36.179Z,2.37
2018-06-22T11:58:04.676Z,2.20
2018-06-22T12:00:33.787Z,2.00
2018-06-22T12:03:02.371Z,2.57
2018-06-22T12:05:30.985Z,2.50
2018-06-22T12:07:59.868Z,2.73
2018-06-22T12:10:28.448Z,2.13
2018-06-22T12:12:56.939Z,2.20
2018-06-22T12:15:25.503Z,2.27
2018-06-22T12:17:53.956Z,1.70
2018-06-22T12:20:22.425Z,2.13
2018-06-22T12:22:50.999Z,2.40
2018-06-22T12:25:19.513Z,1.93
2018-06-22T12:27:47.986Z,1.97
2018-06-22T12:30:16.496Z,2.40
2018-06-22T12:32:44.644Z,2.10
2018-06-22T12:35:13.146Z,2.07
2018-06-22T12:37:41.608Z,2.60
2018-06-22T12:40:10.083Z,2.47
2018-06-22T12:42:38.577Z,2.33
2018-06-22T12:45:09.248Z,2.03
2018-06-22T12:47:37.458Z,2.27
2018-06-22T12:50:06.442Z,2.13
2018-06-22T12:52:34.948Z,2.93
2018-06-22T12:55:03.450Z,1.87
2018-06-22T12:57:32.033Z,2.03
2018-06-22T13:00:00.337Z,2.03
2018-06-22T13:02:29.163Z,2.87
2018-06-22T13:04:57.680Z,2.53
2018-06-22T13:07:26.180Z,2.30
2018-06-22T13:09:54.633Z,2.37
2018-06-22T13:12:22.814Z,2.80
2018-06-22T13:14:51.331Z,2.20
2018-06-22T13:17:19.835Z,2.30
2018-06-22T13:19:48.319Z,2.10
2018-06-22T13:22:16.861Z,2.13
2018-06-22T13:24:45.267Z,2.27
2018-06-22T13:27:13.732Z,2.07
2018-06-22T13:29:42.184Z,1.90
2018-06-22T13:32:10.695Z,2.30
2018-06-22T13:34:39.205Z,2.07
2018-06-22T13:37:07.707Z,2.17
2018-06-22T13:39:36.193Z,2.80
2018-06-22T13:42:04.680Z,2.27
2018-06-22T13:44:33.251Z,1.87
2018-06-22T13:47:01.729Z,2.30
2018-06-22T13:49:30.222Z,2.17
2018-06-22T13:51:58.652Z,2.10
2018-06-22T13:54:27.305Z,1.83
2018-06-22T13:56:55.832Z,2.40
2018-06-22T13:59:24.275Z,2.27
2018-06-22T14:01:52.757Z,2.07
2018-06-22T14:04:26.533Z,2.47
2018-06-22T14:06:56.215Z,2.30
2018-06-22T14:09:24.879Z,2.23
2018-06-22T14:11:53.265Z,2.20
2018-06-22T14:14:21.755Z,2.60
2018-06-22T14:16:50.225Z,2.37
2018-06-22T14:19:18.784Z,2.23
2018-06-22T14:21:47.226Z,1.70
2018-06-22T14:24:15.765Z,2.87
2018-06-22T14:26:44.204Z,2.23
2018-06-22T14:29:12.671Z,2.43
2018-06-22T14:31:41.139Z,2.40
2018-06-22T14:34:09.653Z,2.40
2018-06-22T14:36:38.109Z,2.40
2018-06-22T14:39:08.469Z,2.77
2018-06-22T14:41:36.975Z,2.30
2018-06-22T14:44:05.819Z,2.50
2018-06-22T14:46:34.396Z,3.00
2018-06-22T14:49:02.903Z,2.80
2018-06-22T14:51:31.408Z,2.07
2018-06-22T14:54:05.450Z,2.70
2018-06-22T14:56:39.157Z,2.00
2018-06-22T14:59:13.065Z,2.30
2018-06-22T15:01:46.558Z,1.97
2018-06-22T15:04:20.448Z,2.30
2018-06-22T15:06:54.158Z,2.03
2018-06-22T15:09:22.688Z,1.90
2018-06-22T15:11:51.230Z,2.23
2018-06-22T15:14:19.766Z,2.30
2018-06-22T15:16:48.683Z,2.13
2018-06-22T15:19:17.150Z,2.50
2018-06-22T15:21:45.681Z,3.03
2018-06-22T15:24:14.133Z,2.43
2018-06-22T15:26:42.683Z,2.40
2018-06-22T15:29:10.825Z,3.00
2018-06-22T15:31:39.318Z,2.33
2018-06-22T15:34:13.014Z,2.90
2018-06-22T15:36:46.860Z,2.90
2018-06-22T15:40:24.117Z,1.83
2018-06-22T15:42:57.898Z,2.63
2018-06-22T15:45:30.330Z,2.37
2018-06-22T15:48:04.160Z,2.00
2018-06-22T15:50:37.856Z,2.10
2018-06-22T15:53:11.738Z,2.03
2018-06-22T15:55:43.724Z,2.57
2018-06-22T15:58:12.331Z,2.03
2018-06-22T16:00:40.800Z,2.10
2018-06-22T16:03:15.283Z,2.20
2018-06-22T16:05:43.787Z,1.83
2018-06-22T16:08:12.297Z,2.20
2018-06-22T16:10:40.772Z,2.50
2018-06-22T16:13:14.715Z,2.07
2018-06-22T16:15:48.605Z,2.30
2018-06-22T16:18:22.570Z,2.20
2018-06-22T16:20:55.974Z,2.83
2018-06-22T16:23:29.812Z,2.33
2018-06-22T16:26:03.541Z,2.43
2018-06-22T16:28:32.016Z,2.67
2018-06-22T16:31:00.503Z,2.70
2018-06-22T16:33:29.210Z,2.67
2018-06-22T16:35:57.728Z,2.97
2018-06-22T16:38:25.939Z,3.10
2018-06-22T16:40:54.393Z,2.80
2018-06-22T16:43:23.957Z,2.83
2018-06-22T16:45:52.583Z,2.80
2018-06-22T16:48:21.069Z,2.90
2018-06-22T16:50:49.588Z,2.63
2018-06-22T16:53:18.100Z,2.70
2018-06-22T16:55:46.840Z,2.53
2018-06-22T16:58:20.466Z,2.87
2018-06-22T17:00:48.938Z,4.03
2018-06-22T17:03:17.429Z,2.43
2018-06-22T17:05:45.937Z,3.03
2018-06-22T17:08:19.612Z,2.90
2018-06-22T17:10:53.612Z,2.57
2018-06-22T17:13:27.272Z,3.27
2018-06-22T17:16:01.042Z,2.30
2018-06-22T17:18:34.775Z,2.40
2018-06-22T17:21:03.332Z,3.03
2018-06-22T17:23:31.569Z,2.87
2018-06-22T17:26:00.054Z,2.17
2018-06-22T17:28:28.525Z,2.43
2018-06-22T17:30:57.022Z,2.47
2018-06-22T17:33:25.562Z,2.57
2018-06-22T17:35:54.041Z,2.43
2018-06-22T17:38:22.579Z,2.67
2018-06-22T17:40:51.054Z,2.50
2018-06-22T17:43:19.670Z,2.47
2018-06-22T17:45:48.280Z,2.93
2018-06-22T17:48:16.435Z,2.63
2018-06-22T17:50:44.965Z,2.73
2018-06-22T17:53:13.617Z,2.40
2018-06-22T17:55:42.140Z,2.57
2018-06-22T17:58:10.659Z,3.40
2018-06-22T18:00:44.470Z,2.70
2018-06-22T18:03:18.222Z,2.27
2018-06-22T18:05:52.205Z,2.20
2018-06-22T18:08:25.997Z,2.90
2018-06-22T18:10:59.780Z,2.47
2018-06-22T18:13:28.234Z,2.57
2018-06-22T18:15:56.813Z,2.50
2018-06-22T18:18:25.293Z,2.00
2018-06-22T18:20:53.437Z,2.47
2018-06-22T18:23:21.911Z,2.10
2018-06-22T18:25:50.350Z,2.20
2018-06-22T18:28:18.526Z,2.40
2018-06-22T18:30:47.001Z,2.20
2018-06-22T18:33:15.498Z,2.20
2018-06-22T18:35:43.983Z,2.40
2018-06-22T18:38:12.447Z,2.07
2018-06-22T18:40:40.941Z,2.27
2018-06-22T18:43:13.615Z,2.07
2018-06-22T18:45:42.160Z,2.13
2018-06-22T18:48:10.660Z,1.73
2018-06-22T18:50:39.185Z,2.07
2018-06-22T18:55:14.990Z,2.40
2018-06-22T18:57:48.844Z,2.10
2018-06-22T19:00:22.519Z,1.93
2018-06-22T19:02:56.503Z,2.70
2018-06-22T19:05:24.670Z,2.97
2018-06-22T19:07:53.196Z,2.77
2018-06-22T19:10:21.703Z,2.97
2018-06-22T19:12:50.199Z,2.80
2018-06-22T19:15:18.733Z,2.70
2018-06-22T19:17:47.006Z,2.83
2018-06-22T19:20:15.502Z,3.90
2018-06-22T19:22:44.011Z,5.43
2018-06-22T19:25:12.555Z,4.87
2018-06-22T19:27:41.103Z,4.80
2018-06-22T19:30:10.332Z,2.80
2018-06-22T19:32:39.323Z,3.40
2018-06-22T19:35:14.783Z,3.23
2018-06-22T19:37:44.240Z,3.60
2018-06-22T19:40:13.062Z,2.80
2018-06-22T19:42:41.542Z,3.40
2018-06-22T19:45:15.586Z,2.57
2018-06-22T19:47:49.516Z,3.17
2018-06-22T19:50:23.219Z,2.60
2018-06-22T19:52:57.261Z,2.97
2018-06-22T19:55:25.785Z,2.60
2018-06-22T19:57:54.357Z,2.70
2018-06-22T20:00:22.845Z,3.37
2018-06-22T20:02:51.310Z,2.90
2018-06-22T20:05:19.813Z,3.10
2018-06-22T20:07:48.310Z,3.40
2018-06-22T20:10:16.788Z,3.10
2018-06-22T20:12:45.251Z,2.83
2018-06-22T20:15:13.807Z,3.23
2018-06-22T20:17:42.272Z,2.63
2018-06-22T20:20:10.816Z,2.03
2018-06-22T20:22:39.313Z,2.90
2018-06-22T20:25:13.192Z,2.83
2018-06-22T20:27:41.640Z,2.30
2018-06-22T20:30:10.121Z,3.30
2018-06-22T20:32:38.637Z,2.90
2018-06-22T20:35:12.497Z,3.27
2018-06-22T20:37:46.360Z,2.30
2018-06-22T20:40:20.103Z,3.33
2018-06-22T20:42:53.764Z,3.13
2018-06-22T20:45:27.578Z,3.43
2018-06-22T20:48:01.338Z,2.77
2018-06-22T20:50:32.558Z,3.30
2018-06-22T20:53:01.648Z,3.03
2018-06-22T20:55:30.490Z,3.43
2018-06-22T20:57:58.922Z,3.73
2018-06-22T21:00:28.332Z,3.17
2018-06-22T21:02:58.081Z,2.90
2018-06-22T21:05:26.554Z,3.00
2018-06-22T21:07:55.194Z,4.00
2018-06-22T21:10:23.828Z,3.40
2018-06-22T21:12:52.328Z,3.13
2018-06-22T21:15:20.803Z,4.17
2018-06-22T21:17:49.332Z,3.27
2018-06-22T21:20:17.492Z,3.93
2018-06-22T21:22:46.071Z,4.20
2018-06-22T21:25:14.557Z,4.50
2018-06-22T21:27:48.338Z,4.27
2018-06-22T21:30:22.126Z,3.47
2018-06-22T21:32:55.900Z,4.00
2018-06-22T21:35:30.183Z,3.70
2018-06-22T21:38:03.867Z,4.43
2018-06-22T21:40:32.420Z,3.90
2018-06-22T21:43:00.936Z,4.77
2018-06-22T21:45:29.405Z,4.47
2018-06-22T21:47:57.967Z,3.80
2018-06-22T21:50:26.444Z,3.97
2018-06-22T21:52:54.982Z,3.07
2018-06-22T21:55:23.432Z,3.50
2018-06-22T21:57:51.646Z,3.50
2018-06-22T22:00:31.891Z,5.00
2018-06-22T22:03:01.208Z,4.70
2018-06-22T22:05:30.422Z,4.63
2018-06-22T22:07:59.211Z,4.23
2018-06-22T22:10:33.112Z,4.50
2018-06-22T22:13:01.602Z,3.73
2018-06-22T22:15:30.404Z,4.33
2018-06-22T22:17:58.848Z,3.97
2018-06-22T22:20:27.325Z,3.53
2018-06-22T22:22:55.521Z,3.93
2018-06-22T22:25:24.223Z,3.77
2018-06-22T22:27:52.800Z,3.40
2018-06-22T22:30:21.431Z,4.63
2018-06-22T22:32:50.039Z,4.40
2018-06-22T22:35:18.658Z,3.30
2018-06-22T22:37:47.137Z,4.33
2018-06-22T22:40:15.624Z,4.20
2018-06-22T22:42:44.148Z,4.33
2018-06-22T22:45:12.685Z,4.17
2018-06-22T22:47:41.131Z,4.67
2018-06-22T22:50:09.692Z,4.73
2018-06-22T22:52:38.176Z,3.57
2018-06-22T22:55:06.683Z,5.17
2018-06-22T22:57:35.155Z,3.87
2018-06-22T23:00:03.660Z,3.60
2018-06-22T23:02:32.124Z,3.77
2018-06-22T23:05:00.699Z,4.17
2018-06-22T23:07:29.230Z,4.37
2018-06-22T23:09:57.790Z,3.83
2018-06-22T23:12:26.308Z,3.73
2018-06-22T23:14:54.816Z,4.30
2018-06-22T23:17:23.044Z,3.60
2018-06-22T23:19:51.556Z,3.90
2018-06-22T23:22:30.158Z,5.17
2018-06-22T23:24:58.758Z,4.70
2018-06-22T23:27:27.334Z,4.43
2018-06-22T23:29:55.867Z,4.73
2018-06-22T23:32:24.495Z,4.30
2018-06-22T23:34:52.967Z,5.53
2018-06-22T23:37:21.391Z,4.30
2018-06-22T23:39:49.891Z,4.57
2018-06-22T23:42:18.388Z,5.90
2018-06-22T23:44:46.881Z,4.97
2018-06-22T23:47:15.393Z,5.17
2018-06-22T23:49:43.962Z,5.60
2018-06-22T23:52:12.166Z,4.40
2018-06-22T23:54:40.711Z,4.70
2018-06-22T23:57:09.224Z,3.93
2018-06-22T23:59:37.716Z,4.70
